createdAt,value
2023-04-16T00:00:10.344Z,21.70
2023-04-16T00:00:43.027Z,21.70
2023-04-16T00:01:15.719Z,21.00
2023-04-16T00:01:48.433Z,20.70
2023-04-16T00:02:21.420Z,22.30
2023-04-16T00:02:47.945Z,22.40
2023-04-16T00:03:20.854Z,21.80
2023-04-16T00:03:53.866Z,21.70
2023-04-16T00:04:20.304Z,22.40
2023-04-16T00:04:52.983Z,21.20
2023-04-16T00:05:25.635Z,21.90
2023-04-16T00:05:56.724Z,21.70
2023-04-16T00:06:29.381Z,21.40
2023-04-16T00:07:02.049Z,21.80
2023-04-16T00:07:34.750Z,21.30
2023-04-16T00:08:07.426Z,21.60
2023-04-16T00:08:40.301Z,21.70
2023-04-16T00:09:12.960Z,21.50
2023-04-16T00:09:45.615Z,21.80
2023-04-16T00:10:18.308Z,22.10
2023-04-16T00:10:50.951Z,22.40
2023-04-16T00:11:23.619Z,21.60
2023-04-16T00:11:56.289Z,22.30
2023-04-16T00:12:28.970Z,21.90
2023-04-16T00:13:01.636Z,21.30
2023-04-16T00:13:34.299Z,22.40
2023-04-16T00:14:06.973Z,22.00
2023-04-16T00:14:39.637Z,22.40
2023-04-16T00:15:12.313Z,22.50
2023-04-16T00:15:44.993Z,22.00
2023-04-16T00:16:17.732Z,21.80
2023-04-16T00:16:50.505Z,22.20
2023-04-16T00:17:23.237Z,22.20
2023-04-16T00:17:56.025Z,22.30
2023-04-16T00:18:28.711Z,22.30
2023-04-16T00:19:01.363Z,22.40
2023-04-16T00:19:34.019Z,22.30
2023-04-16T00:20:06.688Z,22.40
2023-04-16T00:20:39.355Z,22.30
2023-04-16T00:21:12.039Z,21.80
2023-04-16T00:21:44.711Z,21.60
2023-04-16T00:22:17.380Z,21.30
2023-04-16T00:22:50.078Z,22.20
2023-04-16T00:23:22.752Z,22.20
2023-04-16T00:23:55.459Z,22.50
2023-04-16T00:24:28.105Z,22.10
2023-04-16T00:25:00.778Z,21.90
2023-04-16T00:25:33.454Z,21.70
2023-04-16T00:26:06.105Z,21.20
2023-04-16T00:26:38.779Z,21.60
2023-04-16T00:27:11.435Z,21.90
2023-04-16T00:27:44.124Z,21.60
2023-04-16T00:28:16.796Z,22.10
2023-04-16T00:28:49.467Z,21.90
2023-04-16T00:29:22.132Z,21.50
2023-04-16T00:29:54.807Z,21.70
2023-04-16T00:30:27.468Z,21.80
2023-04-16T00:31:00.182Z,22.50
2023-04-16T00:31:32.879Z,21.90
2023-04-16T00:32:05.541Z,22.10
2023-04-16T00:32:38.274Z,21.80
2023-04-16T00:33:09.321Z,21.50
2023-04-16T00:33:41.995Z,21.30
2023-04-16T00:34:14.664Z,21.00
2023-04-16T00:34:47.318Z,21.30
2023-04-16T00:35:20.011Z,21.50
2023-04-16T00:35:52.684Z,21.30
2023-04-16T00:36:25.375Z,22.00
2023-04-16T00:36:58.015Z,21.30
2023-04-16T00:37:30.687Z,21.60
2023-04-16T00:38:03.370Z,21.70
2023-04-16T00:38:36.032Z,21.40
2023-04-16T00:39:09.110Z,21.40
2023-04-16T00:39:35.373Z,21.50
2023-04-16T00:40:08.057Z,21.50
2023-04-16T00:40:40.720Z,21.20
2023-04-16T00:41:13.376Z,21.50
2023-04-16T00:41:46.052Z,22.10
2023-04-16T00:42:18.747Z,21.10
2023-04-16T00:42:51.412Z,21.10
2023-04-16T00:43:24.064Z,21.50
2023-04-16T00:43:56.742Z,22.40
2023-04-16T00:44:29.404Z,21.90
2023-04-16T00:45:02.119Z,21.80
2023-04-16T00:45:34.793Z,22.20
2023-04-16T00:46:07.502Z,21.90
2023-04-16T00:46:40.332Z,21.70
2023-04-16T00:47:13.057Z,21.70
2023-04-16T00:47:45.805Z,21.60
2023-04-16T00:48:18.456Z,21.10
2023-04-16T00:48:51.137Z,20.60
2023-04-16T00:49:23.801Z,21.60
2023-04-16T00:49:56.477Z,21.90
2023-04-16T00:50:29.167Z,21.70
2023-04-16T00:51:01.866Z,21.70
2023-04-16T00:51:34.514Z,21.90
2023-04-16T00:52:07.203Z,21.70
2023-04-16T00:52:39.912Z,22.30
2023-04-16T00:53:12.542Z,21.40
2023-04-16T00:53:45.202Z,22.50
2023-04-16T00:54:17.900Z,22.40
2023-04-16T00:54:50.546Z,21.60
2023-04-16T00:55:23.235Z,21.20
2023-04-16T00:55:55.881Z,21.80
2023-04-16T00:56:28.562Z,21.90
2023-04-16T00:57:01.261Z,22.60
2023-04-16T00:57:33.913Z,22.40
2023-04-16T00:58:06.584Z,21.30
2023-04-16T00:58:39.252Z,21.80
2023-04-16T00:59:11.990Z,21.60
2023-04-16T00:59:44.687Z,21.30
2023-04-16T01:00:17.374Z,22.10
2023-04-16T01:00:50.013Z,22.10
2023-04-16T01:01:16.561Z,22.20
2023-04-16T01:01:49.330Z,21.70
2023-04-16T01:02:22.162Z,21.70
2023-04-16T01:02:55.003Z,22.00
2023-04-16T01:03:27.869Z,21.00
2023-04-16T01:04:00.691Z,21.40
2023-04-16T01:04:33.462Z,21.20
2023-04-16T01:05:06.156Z,20.90
2023-04-16T01:05:38.842Z,21.60
2023-04-16T01:06:11.503Z,21.60
2023-04-16T01:06:44.193Z,20.90
2023-04-16T01:07:16.848Z,21.40
2023-04-16T01:07:49.553Z,22.10
2023-04-16T01:08:22.202Z,21.30
2023-04-16T01:08:54.884Z,22.20
2023-04-16T01:09:27.570Z,21.50
2023-04-16T01:10:00.241Z,21.80
2023-04-16T01:10:32.924Z,21.90
2023-04-16T01:11:05.609Z,21.90
2023-04-16T01:11:38.256Z,21.90
2023-04-16T01:12:10.933Z,21.80
2023-04-16T01:12:43.607Z,22.00
2023-04-16T01:13:16.270Z,22.20
2023-04-16T01:13:48.933Z,21.60
2023-04-16T01:14:21.622Z,21.90
2023-04-16T01:14:54.302Z,22.10
2023-04-16T01:15:26.939Z,21.30
2023-04-16T01:15:59.649Z,21.30
2023-04-16T01:16:32.322Z,21.50
2023-04-16T01:17:04.976Z,21.90
2023-04-16T01:17:37.694Z,21.60
2023-04-16T01:18:10.355Z,21.50
2023-04-16T01:18:41.437Z,21.60
2023-04-16T01:19:14.089Z,21.40
2023-04-16T01:19:46.758Z,21.60
2023-04-16T01:20:19.425Z,21.30
2023-04-16T01:20:52.106Z,22.30
2023-04-16T01:21:24.761Z,21.70
2023-04-16T01:21:57.426Z,21.60
2023-04-16T01:22:30.093Z,21.90
2023-04-16T01:23:02.857Z,22.00
2023-04-16T01:23:35.529Z,21.50
2023-04-16T01:24:08.198Z,22.20
2023-04-16T01:24:40.874Z,21.60
2023-04-16T01:25:13.523Z,22.30
2023-04-16T01:25:46.190Z,21.90
2023-04-16T01:26:18.859Z,22.60
2023-04-16T01:26:51.533Z,22.10
2023-04-16T01:27:24.281Z,21.70
2023-04-16T01:27:56.964Z,22.10
2023-04-16T01:28:29.625Z,21.60
2023-04-16T01:29:02.295Z,20.90
2023-04-16T01:29:34.966Z,21.90
2023-04-16T01:30:07.687Z,21.30
2023-04-16T01:30:38.750Z,21.40
2023-04-16T01:31:11.430Z,21.30
2023-04-16T01:31:44.132Z,21.30
2023-04-16T01:32:16.795Z,21.80
2023-04-16T01:32:49.526Z,21.10
2023-04-16T01:33:22.209Z,21.30
2023-04-16T01:33:54.860Z,21.40
2023-04-16T01:34:27.538Z,21.20
2023-04-16T01:35:00.237Z,21.30
2023-04-16T01:35:32.905Z,21.70
2023-04-16T01:36:05.565Z,20.80
2023-04-16T01:36:38.227Z,21.20
2023-04-16T01:37:10.896Z,21.40
2023-04-16T01:37:43.576Z,21.00
2023-04-16T01:38:16.259Z,20.70
2023-04-16T01:38:48.929Z,20.80
2023-04-16T01:39:21.591Z,20.60
2023-04-16T01:39:54.289Z,20.30
2023-04-16T01:40:26.933Z,20.80
2023-04-16T01:40:59.643Z,21.10
2023-04-16T01:41:32.288Z,20.40
2023-04-16T01:42:04.951Z,21.00
2023-04-16T01:42:37.677Z,20.80
2023-04-16T01:43:10.329Z,20.90
2023-04-16T01:43:43.014Z,21.30
2023-04-16T01:44:15.692Z,21.20
2023-04-16T01:44:48.373Z,21.00
2023-04-16T01:45:21.056Z,20.10
2023-04-16T01:45:53.721Z,21.20
2023-04-16T01:46:26.443Z,20.40
2023-04-16T01:46:59.247Z,20.50
2023-04-16T01:47:31.963Z,20.30
2023-04-16T01:48:04.624Z,21.00
2023-04-16T01:48:37.299Z,20.00
2023-04-16T01:49:10.133Z,19.40
2023-04-16T01:49:42.891Z,21.10
2023-04-16T01:50:15.563Z,20.70
2023-04-16T01:50:48.233Z,19.90
2023-04-16T01:51:20.899Z,20.20
2023-04-16T01:51:53.567Z,20.50
2023-04-16T01:52:26.236Z,19.70
2023-04-16T01:52:58.925Z,19.70
2023-04-16T01:53:31.593Z,20.50
2023-04-16T01:54:04.295Z,19.90
2023-04-16T01:54:36.961Z,19.50
2023-04-16T01:55:09.650Z,19.50
2023-04-16T01:55:42.304Z,19.50
2023-04-16T01:56:14.971Z,19.60
2023-04-16T01:56:47.643Z,19.90
2023-04-16T01:57:20.297Z,19.60
2023-04-16T01:57:52.982Z,19.80
2023-04-16T01:58:25.646Z,19.90
2023-04-16T01:58:58.315Z,19.20
2023-04-16T01:59:30.970Z,19.40
2023-04-16T02:00:03.638Z,19.80
2023-04-16T02:00:36.336Z,20.10
2023-04-16T02:01:09.019Z,19.60
2023-04-16T02:01:41.690Z,19.50
2023-04-16T02:02:14.409Z,19.50
2023-04-16T02:02:47.297Z,20.10
2023-04-16T02:03:20.262Z,19.20
2023-04-16T02:03:53.190Z,19.90
2023-04-16T02:04:25.907Z,19.80
2023-04-16T02:04:58.576Z,20.30
2023-04-16T02:05:31.249Z,19.70
2023-04-16T02:06:03.958Z,19.40
2023-04-16T02:06:36.622Z,19.80
2023-04-16T02:07:09.319Z,20.50
2023-04-16T02:07:41.986Z,20.00
2023-04-16T02:08:14.650Z,19.80
2023-04-16T02:08:47.310Z,20.00
2023-04-16T02:09:19.982Z,20.00
2023-04-16T02:09:52.650Z,19.70
2023-04-16T02:10:25.344Z,20.10
2023-04-16T02:10:57.991Z,19.90
2023-04-16T02:11:30.665Z,20.50
2023-04-16T02:12:03.325Z,20.10
2023-04-16T02:12:36.010Z,20.10
2023-04-16T02:13:08.669Z,19.60
2023-04-16T02:13:41.338Z,20.60
2023-04-16T02:14:14.012Z,20.10
2023-04-16T02:14:46.670Z,20.70
2023-04-16T02:15:19.338Z,20.10
2023-04-16T02:15:52.010Z,19.90
2023-04-16T02:16:24.810Z,20.40
2023-04-16T02:16:57.492Z,20.40
2023-04-16T02:17:30.179Z,20.10
2023-04-16T02:18:02.879Z,20.90
2023-04-16T02:18:35.519Z,20.70
2023-04-16T02:19:08.836Z,20.40
2023-04-16T02:19:35.132Z,20.40
2023-04-16T02:20:07.836Z,20.70
2023-04-16T02:20:40.490Z,19.90
2023-04-16T02:21:13.179Z,21.30
2023-04-16T02:21:45.853Z,20.20
2023-04-16T02:22:18.520Z,21.10
2023-04-16T02:22:51.216Z,20.10
2023-04-16T02:23:23.876Z,20.90
2023-04-16T02:23:56.546Z,20.80
2023-04-16T02:24:29.239Z,20.80
2023-04-16T02:25:01.899Z,21.60
2023-04-16T02:25:34.582Z,21.00
2023-04-16T02:26:07.232Z,21.40
2023-04-16T02:26:39.908Z,21.10
2023-04-16T02:27:12.587Z,21.00
2023-04-16T02:27:45.264Z,21.70
2023-04-16T02:28:17.919Z,21.80
2023-04-16T02:28:50.600Z,21.30
2023-04-16T02:29:23.257Z,21.60
2023-04-16T02:29:55.957Z,21.90
2023-04-16T02:30:28.599Z,22.00
2023-04-16T02:31:01.261Z,21.80
2023-04-16T02:31:33.972Z,22.80
2023-04-16T02:32:06.737Z,21.40
2023-04-16T02:32:39.506Z,22.20
2023-04-16T02:33:12.194Z,22.40
2023-04-16T02:33:44.854Z,22.80
2023-04-16T02:34:17.535Z,21.90
2023-04-16T02:34:50.189Z,22.60
2023-04-16T02:35:21.306Z,22.20
2023-04-16T02:35:53.951Z,22.60
2023-04-16T02:36:26.616Z,22.40
2023-04-16T02:36:59.282Z,22.50
2023-04-16T02:37:31.944Z,22.20
2023-04-16T02:38:04.629Z,22.90
2023-04-16T02:38:37.308Z,22.90
2023-04-16T02:39:10.183Z,23.00
2023-04-16T02:39:42.949Z,22.60
2023-04-16T02:40:15.610Z,22.80
2023-04-16T02:40:48.309Z,22.60
2023-04-16T02:41:20.976Z,22.80
2023-04-16T02:41:52.048Z,23.30
2023-04-16T02:42:24.720Z,22.90
2023-04-16T02:42:57.402Z,22.90
2023-04-16T02:43:30.080Z,23.00
2023-04-16T02:44:02.794Z,23.10
2023-04-16T02:44:35.441Z,23.40
2023-04-16T02:45:08.113Z,23.70
2023-04-16T02:45:40.822Z,22.70
2023-04-16T02:46:13.533Z,23.00
2023-04-16T02:46:46.177Z,22.80
2023-04-16T02:47:18.887Z,22.10
2023-04-16T02:47:51.550Z,22.40
2023-04-16T02:48:24.220Z,22.10
2023-04-16T02:48:56.895Z,23.00
2023-04-16T02:49:29.551Z,22.50
2023-04-16T02:50:02.203Z,23.00
2023-04-16T02:50:34.876Z,22.70
2023-04-16T02:51:07.555Z,23.00
2023-04-16T02:51:40.241Z,22.50
2023-04-16T02:52:15.104Z,22.90
2023-04-16T02:52:41.865Z,23.70
2023-04-16T02:53:14.514Z,22.90
2023-04-16T02:53:45.609Z,22.50
2023-04-16T02:54:18.257Z,22.70
2023-04-16T02:54:50.925Z,22.50
2023-04-16T02:55:23.621Z,23.30
2023-04-16T02:55:56.337Z,23.30
2023-04-16T02:56:28.985Z,22.70
2023-04-16T02:57:01.641Z,22.70
2023-04-16T02:57:34.327Z,23.20
2023-04-16T02:58:07.006Z,22.50
2023-04-16T02:58:39.672Z,22.40
2023-04-16T02:59:12.369Z,22.60
2023-04-16T02:59:45.025Z,22.80
2023-04-16T03:00:17.701Z,23.10
2023-04-16T03:00:50.360Z,22.50
2023-04-16T03:01:23.232Z,22.70
2023-04-16T03:01:55.930Z,22.70
2023-04-16T03:02:28.717Z,22.60
2023-04-16T03:03:01.461Z,23.60
2023-04-16T03:03:34.153Z,22.90
2023-04-16T03:04:06.896Z,22.00
2023-04-16T03:04:39.682Z,21.40
2023-04-16T03:05:12.456Z,22.40
2023-04-16T03:05:45.111Z,22.40
2023-04-16T03:06:17.781Z,22.10
2023-04-16T03:06:50.450Z,22.10
2023-04-16T03:07:23.116Z,22.40
2023-04-16T03:07:55.807Z,23.40
2023-04-16T03:08:28.479Z,22.80
2023-04-16T03:09:01.188Z,22.50
2023-04-16T03:09:33.821Z,22.60
2023-04-16T03:10:06.483Z,23.10
2023-04-16T03:10:39.158Z,22.10
2023-04-16T03:11:11.853Z,22.00
2023-04-16T03:11:44.486Z,21.60
2023-04-16T03:12:17.172Z,21.50
2023-04-16T03:12:49.838Z,21.70
2023-04-16T03:13:22.507Z,22.30
2023-04-16T03:13:55.187Z,21.80
2023-04-16T03:14:27.855Z,21.10
2023-04-16T03:15:00.554Z,21.90
2023-04-16T03:15:33.298Z,21.40
2023-04-16T03:16:05.969Z,21.50
2023-04-16T03:16:38.811Z,20.40
2023-04-16T03:17:11.459Z,20.80
2023-04-16T03:17:44.217Z,21.40
2023-04-16T03:18:16.911Z,20.40
2023-04-16T03:18:49.583Z,21.30
2023-04-16T03:19:22.253Z,21.00
2023-04-16T03:19:54.919Z,20.40
2023-04-16T03:20:27.607Z,20.90
2023-04-16T03:21:00.259Z,20.50
2023-04-16T03:21:32.926Z,20.40
2023-04-16T03:22:05.605Z,20.60
2023-04-16T03:22:38.277Z,19.80
2023-04-16T03:23:10.981Z,19.70
2023-04-16T03:23:43.629Z,20.20
2023-04-16T03:24:16.290Z,20.20
2023-04-16T03:24:48.978Z,19.50
2023-04-16T03:25:21.645Z,20.80
2023-04-16T03:25:54.325Z,20.60
2023-04-16T03:26:27.001Z,20.00
2023-04-16T03:26:59.657Z,20.10
2023-04-16T03:27:32.344Z,20.20
2023-04-16T03:28:05.018Z,20.40
2023-04-16T03:28:37.679Z,20.30
2023-04-16T03:29:10.622Z,19.90
2023-04-16T03:29:37.019Z,19.90
2023-04-16T03:30:09.705Z,20.50
2023-04-16T03:30:42.359Z,19.80
2023-04-16T03:31:15.084Z,19.00
2023-04-16T03:31:47.914Z,19.10
2023-04-16T03:32:20.599Z,19.40
2023-04-16T03:32:53.307Z,19.20
2023-04-16T03:33:25.950Z,18.80
2023-04-16T03:33:58.643Z,19.40
2023-04-16T03:34:31.313Z,19.30
2023-04-16T03:35:03.973Z,18.70
2023-04-16T03:35:36.658Z,19.30
2023-04-16T03:36:09.312Z,18.80
2023-04-16T03:36:42.005Z,18.40
2023-04-16T03:37:14.668Z,18.80
2023-04-16T03:37:47.537Z,18.80
2023-04-16T03:38:20.201Z,17.90
2023-04-16T03:38:52.869Z,17.60
2023-04-16T03:39:25.535Z,18.70
2023-04-16T03:39:58.203Z,18.30
2023-04-16T03:40:30.870Z,18.50
2023-04-16T03:41:03.607Z,18.10
2023-04-16T03:41:36.258Z,18.60
2023-04-16T03:42:08.914Z,18.80
2023-04-16T03:42:41.577Z,18.50
2023-04-16T03:43:14.234Z,18.70
2023-04-16T03:43:46.911Z,18.90
2023-04-16T03:44:19.587Z,18.50
2023-04-16T03:44:52.266Z,18.50
2023-04-16T03:45:24.934Z,19.70
2023-04-16T03:45:57.595Z,18.90
2023-04-16T03:46:30.336Z,19.30
2023-04-16T03:47:03.002Z,18.90
2023-04-16T03:47:35.712Z,19.60
2023-04-16T03:48:08.385Z,19.50
2023-04-16T03:48:41.073Z,19.80
2023-04-16T03:49:13.719Z,20.00
2023-04-16T03:49:46.506Z,20.70
2023-04-16T03:50:19.132Z,20.00
2023-04-16T03:50:51.802Z,19.80
2023-04-16T03:51:24.480Z,19.60
2023-04-16T03:51:57.161Z,20.60
2023-04-16T03:52:29.838Z,20.30
2023-04-16T03:53:02.523Z,20.30
2023-04-16T03:53:35.179Z,20.20
2023-04-16T03:54:07.845Z,20.50
2023-04-16T03:54:40.535Z,21.00
2023-04-16T03:55:13.207Z,21.20
2023-04-16T03:55:45.879Z,21.40
2023-04-16T03:56:18.581Z,20.60
2023-04-16T03:56:51.284Z,20.90
2023-04-16T03:57:23.928Z,20.50
2023-04-16T03:57:56.620Z,21.00
2023-04-16T03:58:29.295Z,21.80
2023-04-16T03:59:01.938Z,21.20
2023-04-16T03:59:34.604Z,21.60
2023-04-16T04:00:07.276Z,21.20
2023-04-16T04:00:39.944Z,21.60
2023-04-16T04:01:12.627Z,21.40
2023-04-16T04:01:45.309Z,21.30
2023-04-16T04:02:18.023Z,22.20
2023-04-16T04:02:50.844Z,21.60
2023-04-16T04:03:23.789Z,21.40
2023-04-16T04:03:50.280Z,21.30
2023-04-16T04:04:16.728Z,21.70
2023-04-16T04:04:49.474Z,21.90
2023-04-16T04:05:22.152Z,21.70
2023-04-16T04:05:54.815Z,21.50
2023-04-16T04:06:27.487Z,22.20
2023-04-16T04:07:00.139Z,21.80
2023-04-16T04:07:32.799Z,21.50
2023-04-16T04:08:05.506Z,21.20
2023-04-16T04:08:38.152Z,21.50
2023-04-16T04:09:11.029Z,22.10
2023-04-16T04:09:43.807Z,22.30
2023-04-16T04:10:16.459Z,22.80
2023-04-16T04:10:49.128Z,22.30
2023-04-16T04:11:21.820Z,22.10
2023-04-16T04:11:54.485Z,22.40
2023-04-16T04:12:27.134Z,22.80
2023-04-16T04:12:59.818Z,22.10
2023-04-16T04:13:32.519Z,22.30
2023-04-16T04:14:05.177Z,22.30
2023-04-16T04:14:37.860Z,21.80
2023-04-16T04:15:10.529Z,22.50
2023-04-16T04:15:43.180Z,22.40
2023-04-16T04:16:15.881Z,22.40
2023-04-16T04:16:48.627Z,22.10
2023-04-16T04:17:21.367Z,22.70
2023-04-16T04:17:54.078Z,22.30
2023-04-16T04:18:26.763Z,22.20
2023-04-16T04:18:59.407Z,22.50
2023-04-16T04:19:32.077Z,22.40
2023-04-16T04:20:04.744Z,22.40
2023-04-16T04:20:37.422Z,22.40
2023-04-16T04:21:10.085Z,21.90
2023-04-16T04:21:42.769Z,22.70
2023-04-16T04:22:15.418Z,22.10
2023-04-16T04:22:48.088Z,22.70
2023-04-16T04:23:20.768Z,22.70
2023-04-16T04:23:55.010Z,22.60
2023-04-16T04:24:22.141Z,22.20
2023-04-16T04:24:54.829Z,22.40
2023-04-16T04:25:27.481Z,22.20
2023-04-16T04:26:00.212Z,22.70
2023-04-16T04:26:32.859Z,23.40
2023-04-16T04:27:05.570Z,23.80
2023-04-16T04:27:38.209Z,23.10
2023-04-16T04:28:10.924Z,23.20
2023-04-16T04:28:43.589Z,22.60
2023-04-16T04:29:16.261Z,23.50
2023-04-16T04:29:48.943Z,22.90
2023-04-16T04:30:21.597Z,22.60
2023-04-16T04:30:54.270Z,23.40
2023-04-16T04:31:26.948Z,22.40
2023-04-16T04:31:59.654Z,22.80
2023-04-16T04:32:32.439Z,22.30
2023-04-16T04:34:21.744Z,22.10
2023-04-16T04:34:54.415Z,24.00
2023-04-16T04:35:27.096Z,23.20
2023-04-16T04:35:59.750Z,23.10
2023-04-16T04:36:32.423Z,23.30
2023-04-16T04:37:05.096Z,23.30
2023-04-16T04:37:37.762Z,23.00
2023-04-16T04:38:10.463Z,23.50
2023-04-16T04:38:43.126Z,23.70
2023-04-16T04:39:15.812Z,23.50
2023-04-16T04:39:48.464Z,23.00
2023-04-16T04:40:21.126Z,22.70
2023-04-16T04:40:53.796Z,23.70
2023-04-16T04:41:26.457Z,23.80
2023-04-16T04:41:59.152Z,23.50
2023-04-16T04:42:31.824Z,23.50
2023-04-16T04:43:04.498Z,23.00
2023-04-16T04:43:37.162Z,23.60
2023-04-16T04:44:09.819Z,23.90
2023-04-16T04:44:42.500Z,23.00
2023-04-16T04:45:15.175Z,23.50
2023-04-16T04:45:47.849Z,23.50
2023-04-16T04:46:20.569Z,23.30
2023-04-16T04:46:53.251Z,23.10
2023-04-16T04:47:25.951Z,23.20
2023-04-16T04:47:58.635Z,24.00
2023-04-16T04:48:31.298Z,23.30
2023-04-16T04:49:03.964Z,23.60
2023-04-16T04:49:36.640Z,23.10
2023-04-16T04:50:09.334Z,24.00
2023-04-16T04:50:41.997Z,23.10
2023-04-16T04:51:14.663Z,24.00
2023-04-16T04:51:47.346Z,23.30
2023-04-16T04:52:20.016Z,23.40
2023-04-16T04:52:52.708Z,22.60
2023-04-16T04:53:25.352Z,22.40
2023-04-16T04:53:58.013Z,23.60
2023-04-16T04:54:30.680Z,23.10
2023-04-16T04:55:03.355Z,23.60
2023-04-16T04:55:36.019Z,23.00
2023-04-16T04:56:12.866Z,24.00
2023-04-16T04:56:39.291Z,23.60
2023-04-16T04:57:11.965Z,22.90
2023-04-16T04:57:44.655Z,23.20
2023-04-16T04:58:17.329Z,22.60
2023-04-16T04:58:49.984Z,22.50
2023-04-16T04:59:22.652Z,23.30
2023-04-16T04:59:55.318Z,23.30
2023-04-16T05:00:27.985Z,23.00
2023-04-16T05:01:00.708Z,22.80
2023-04-16T05:01:33.418Z,23.00
2023-04-16T05:02:06.105Z,23.30
2023-04-16T05:02:38.904Z,23.40
2023-04-16T05:03:11.742Z,22.80
2023-04-16T05:03:44.623Z,22.30
2023-04-16T05:04:17.546Z,22.30
2023-04-16T05:04:50.370Z,21.90
2023-04-16T05:05:23.048Z,23.20
2023-04-16T05:05:55.704Z,22.80
2023-04-16T05:06:29.686Z,22.60
2023-04-16T05:06:55.868Z,23.20
2023-04-16T05:07:28.548Z,22.40
2023-04-16T05:08:01.240Z,22.60
2023-04-16T05:08:33.903Z,22.20
2023-04-16T05:09:06.598Z,22.00
2023-04-16T05:09:39.265Z,22.70
2023-04-16T05:10:11.941Z,22.90
2023-04-16T05:10:44.622Z,22.10
2023-04-16T05:11:17.306Z,22.60
2023-04-16T05:11:49.979Z,23.40
2023-04-16T05:12:21.067Z,22.50
2023-04-16T05:12:53.789Z,22.40
2023-04-16T05:13:26.428Z,22.20
2023-04-16T05:13:57.518Z,22.90
2023-04-16T05:14:30.194Z,21.80
2023-04-16T05:15:02.880Z,22.10
2023-04-16T05:15:35.520Z,22.80
2023-04-16T05:16:08.190Z,22.50
2023-04-16T05:16:40.890Z,22.10
2023-04-16T05:17:13.574Z,22.00
2023-04-16T05:17:46.280Z,21.70
2023-04-16T05:18:18.938Z,21.40
2023-04-16T05:18:51.602Z,21.80
2023-04-16T05:19:24.258Z,21.90
2023-04-16T05:19:56.958Z,22.30
2023-04-16T05:20:29.598Z,22.40
2023-04-16T05:21:02.261Z,22.20
2023-04-16T05:21:34.942Z,22.00
2023-04-16T05:22:07.588Z,21.90
2023-04-16T05:22:40.387Z,21.70
2023-04-16T05:23:13.045Z,21.40
2023-04-16T05:23:45.713Z,21.50
2023-04-16T05:24:18.366Z,21.90
2023-04-16T05:24:51.037Z,21.90
2023-04-16T05:25:23.712Z,21.90
2023-04-16T05:25:56.401Z,21.60
2023-04-16T05:26:29.082Z,21.60
2023-04-16T05:27:01.744Z,20.70
2023-04-16T05:27:34.427Z,21.50
2023-04-16T05:28:07.177Z,21.00
2023-04-16T05:28:39.878Z,21.80
2023-04-16T05:29:12.560Z,21.40
2023-04-16T05:29:45.192Z,20.90
2023-04-16T05:30:17.859Z,20.50
2023-04-16T05:30:50.566Z,21.50
2023-04-16T05:31:23.280Z,21.60
2023-04-16T05:31:55.938Z,21.80
2023-04-16T05:32:28.626Z,20.90
2023-04-16T05:33:01.395Z,21.10
2023-04-16T05:33:34.064Z,20.90
2023-04-16T05:34:06.732Z,21.30
2023-04-16T05:34:39.389Z,21.00
2023-04-16T05:35:12.069Z,20.90
2023-04-16T05:35:44.741Z,21.10
2023-04-16T05:36:17.420Z,20.90
2023-04-16T05:36:50.067Z,21.50
2023-04-16T05:37:22.737Z,21.60
2023-04-16T05:37:55.409Z,20.80
2023-04-16T05:38:28.075Z,21.10
2023-04-16T05:39:00.761Z,20.60
2023-04-16T05:39:33.421Z,20.60
2023-04-16T05:40:06.086Z,19.90
2023-04-16T05:40:38.765Z,20.90
2023-04-16T05:41:11.405Z,21.10
2023-04-16T05:41:44.083Z,20.30
2023-04-16T05:42:16.788Z,21.20
2023-04-16T05:42:49.438Z,21.50
2023-04-16T05:43:22.154Z,20.60
2023-04-16T05:43:54.816Z,21.00
2023-04-16T05:44:27.497Z,21.10
2023-04-16T05:45:00.164Z,20.80
2023-04-16T05:45:32.826Z,20.60
2023-04-16T05:46:05.514Z,21.10
2023-04-16T05:46:38.394Z,20.40
2023-04-16T05:47:11.164Z,20.50
2023-04-16T05:47:43.852Z,19.60
2023-04-16T05:48:16.511Z,20.90
2023-04-16T05:48:49.177Z,20.40
2023-04-16T05:49:21.840Z,20.60
2023-04-16T05:49:54.508Z,20.30
2023-04-16T05:50:27.198Z,20.50
2023-04-16T05:50:59.856Z,20.20
2023-04-16T05:51:32.528Z,20.30
2023-04-16T05:52:05.203Z,21.40
2023-04-16T05:52:37.879Z,20.50
2023-04-16T05:53:10.552Z,20.60
2023-04-16T05:53:43.225Z,21.20
2023-04-16T05:54:15.922Z,20.70
2023-04-16T05:54:48.596Z,20.40
2023-04-16T05:55:21.242Z,20.50
2023-04-16T05:55:53.908Z,20.70
2023-04-16T05:56:26.577Z,20.30
2023-04-16T05:56:59.242Z,20.00
2023-04-16T05:57:31.925Z,20.10
2023-04-16T05:58:04.597Z,20.50
2023-04-16T05:58:37.302Z,19.70
2023-04-16T05:59:10.186Z,19.90
2023-04-16T05:59:36.517Z,20.30
2023-04-16T06:00:09.172Z,19.30
2023-04-16T06:00:41.840Z,19.80
2023-04-16T06:01:14.548Z,19.40
2023-04-16T06:01:47.214Z,19.30
2023-04-16T06:02:20.011Z,20.10
2023-04-16T06:02:52.855Z,20.20
2023-04-16T06:03:25.676Z,19.70
2023-04-16T06:03:58.461Z,20.10
2023-04-16T06:04:31.173Z,19.80
2023-04-16T06:05:03.867Z,20.60
2023-04-16T06:05:36.625Z,20.30
2023-04-16T06:06:09.374Z,19.60
2023-04-16T06:06:42.034Z,20.20
2023-04-16T06:07:14.702Z,19.50
2023-04-16T06:07:47.364Z,20.10
2023-04-16T06:08:20.051Z,19.30
2023-04-16T06:08:52.721Z,20.30
2023-04-16T06:09:25.383Z,20.50
2023-04-16T06:09:58.069Z,20.50
2023-04-16T06:10:30.737Z,20.40
2023-04-16T06:11:03.409Z,20.80
2023-04-16T06:11:36.519Z,19.90
2023-04-16T06:12:02.712Z,20.00
2023-04-16T06:12:35.387Z,20.50
2023-04-16T06:13:08.079Z,20.80
2023-04-16T06:13:40.769Z,19.80
2023-04-16T06:14:13.403Z,19.50
2023-04-16T06:14:46.081Z,20.50
2023-04-16T06:15:18.742Z,20.60
2023-04-16T06:15:51.439Z,20.20
2023-04-16T06:16:24.078Z,19.70
2023-04-16T06:16:56.746Z,20.10
2023-04-16T06:17:29.420Z,20.30
2023-04-16T06:18:02.163Z,20.60
2023-04-16T06:18:34.861Z,19.30
2023-04-16T06:19:07.701Z,20.40
2023-04-16T06:19:40.460Z,20.40
2023-04-16T06:20:13.122Z,20.40
2023-04-16T06:20:45.813Z,19.80
2023-04-16T06:21:18.459Z,20.40
2023-04-16T06:21:51.152Z,20.60
2023-04-16T06:22:23.813Z,19.60
2023-04-16T06:22:56.495Z,19.90
2023-04-16T06:23:29.167Z,20.20
2023-04-16T06:24:01.875Z,20.00
2023-04-16T06:24:34.528Z,20.10
2023-04-16T06:25:07.205Z,20.10
2023-04-16T06:25:39.883Z,19.80
2023-04-16T06:26:12.530Z,20.80
2023-04-16T06:26:45.224Z,20.40
2023-04-16T06:27:17.892Z,19.80
2023-04-16T06:27:50.605Z,20.70
2023-04-16T06:28:23.259Z,20.50
2023-04-16T06:28:55.939Z,20.10
2023-04-16T06:29:39.987Z,20.00
2023-04-16T06:30:00.666Z,20.10
2023-04-16T06:30:26.842Z,19.90
2023-04-16T06:30:59.520Z,19.90
2023-04-16T06:31:32.253Z,20.40
2023-04-16T06:32:04.974Z,20.20
2023-04-16T06:32:37.696Z,19.50
2023-04-16T06:33:10.350Z,20.00
2023-04-16T06:33:43.004Z,19.30
2023-04-16T06:34:15.692Z,20.00
2023-04-16T06:34:48.498Z,20.30
2023-04-16T06:35:21.175Z,20.00
2023-04-16T06:35:53.824Z,20.70
2023-04-16T06:36:26.518Z,20.50
2023-04-16T06:36:59.153Z,21.20
2023-04-16T06:37:31.844Z,21.10
2023-04-16T06:38:04.516Z,20.40
2023-04-16T06:38:37.195Z,20.50
2023-04-16T06:39:10.162Z,20.30
2023-04-16T06:39:36.471Z,20.20
2023-04-16T06:40:09.146Z,19.90
2023-04-16T06:40:41.812Z,19.90
2023-04-16T06:41:14.480Z,20.80
2023-04-16T06:41:47.162Z,20.50
2023-04-16T06:42:19.820Z,21.10
2023-04-16T06:42:52.489Z,19.90
2023-04-16T06:43:25.148Z,19.80
2023-04-16T06:43:57.842Z,20.50
2023-04-16T06:44:30.479Z,19.70
2023-04-16T06:45:03.152Z,19.40
2023-04-16T06:45:35.814Z,20.00
2023-04-16T06:46:08.498Z,20.10
2023-04-16T06:46:41.290Z,20.60
2023-04-16T06:47:13.962Z,21.20
2023-04-16T06:47:46.700Z,21.60
2023-04-16T06:48:19.363Z,22.20
2023-04-16T06:48:52.032Z,21.70
2023-04-16T06:49:24.705Z,21.50
2023-04-16T06:49:57.418Z,21.00
2023-04-16T06:50:30.060Z,20.60
2023-04-16T06:51:02.730Z,20.10
2023-04-16T06:51:35.398Z,20.50
2023-04-16T06:52:08.062Z,21.60
2023-04-16T06:52:40.743Z,20.50
2023-04-16T06:53:13.417Z,20.60
2023-04-16T06:53:46.085Z,20.40
2023-04-16T06:54:18.759Z,20.80
2023-04-16T06:54:51.453Z,20.50
2023-04-16T06:55:24.103Z,20.20
2023-04-16T06:55:56.770Z,20.10
2023-04-16T06:56:29.431Z,19.90
2023-04-16T06:57:02.151Z,20.50
2023-04-16T06:57:37.319Z,20.00
2023-04-16T06:58:03.694Z,19.60
2023-04-16T06:58:36.373Z,19.40
2023-04-16T06:59:09.314Z,20.00
2023-04-16T06:59:35.593Z,20.30
2023-04-16T07:00:08.269Z,19.80